sensor_id;sensor_type;location;lat;lon;timestamp;temperature;humidity
51029;DHT22;37054;52.054;8.600;2023-07-09T00:00:11;23.70;45.20
51029;DHT22;37054;52.054;8.600;2023-07-09T00:02:39;23.60;45.20
51029;DHT22;37054;52.054;8.600;2023-07-09T00:05:04;23.50;45.10
51029;DHT22;37054;52.054;8.600;2023-07-09T00:07:31;23.50;45.80
51029;DHT22;37054;52.054;8.600;2023-07-09T00:09:56;23.50;46.30
51029;DHT22;37054;52.054;8.600;2023-07-09T00:12:22;23.50;46.10
51029;DHT22;37054;52.054;8.600;2023-07-09T00:14:48;23.40;46.00
51029;DHT22;37054;52.054;8.600;2023-07-09T00:17:25;23.30;46.00
51029;DHT22;37054;52.054;8.600;2023-07-09T00:19:51;23.30;46.00
51029;DHT22;37054;52.054;8.600;2023-07-09T00:22:17;23.20;46.00
51029;DHT22;37054;52.054;8.600;2023-07-09T00:24:49;23.20;46.10
51029;DHT22;37054;52.054;8.600;2023-07-09T00:27:27;23.10;46.10
51029;DHT22;37054;52.054;8.600;2023-07-09T00:29:53;23.00;46.20
51029;DHT22;37054;52.054;8.600;2023-07-09T00:32:19;22.90;46.20
51029;DHT22;37054;52.054;8.600;2023-07-09T00:34:46;22.80;46.40
51029;DHT22;37054;52.054;8.600;2023-07-09T00:37:14;22.80;46.40
51029;DHT22;37054;52.054;8.600;2023-07-09T00:39:39;22.80;46.40
51029;DHT22;37054;52.054;8.600;2023-07-09T00:42:07;22.70;46.50
51029;DHT22;37054;52.054;8.600;2023-07-09T00:44:34;22.70;46.60
51029;DHT22;37054;52.054;8.600;2023-07-09T00:49:33;22.60;47.00
51029;DHT22;37054;52.054;8.600;2023-07-09T00:52:00;22.50;47.00
51029;DHT22;37054;52.054;8.600;2023-07-09T00:54:32;22.50;46.90
51029;DHT22;37054;52.054;8.600;2023-07-09T00:57:01;22.50;47.00
51029;DHT22;37054;52.054;8.600;2023-07-09T00:59:27;22.40;47.00
51029;DHT22;37054;52.054;8.600;2023-07-09T01:01:55;22.40;47.10
51029;DHT22;37054;52.054;8.600;2023-07-09T01:04:20;22.30;47.40
51029;DHT22;37054;52.054;8.600;2023-07-09T01:06:47;22.30;47.50
51029;DHT22;37054;52.054;8.600;2023-07-09T01:09:14;22.30;47.60
51029;DHT22;37054;52.054;8.600;2023-07-09T01:11:40;22.20;47.50
51029;DHT22;37054;52.054;8.600;2023-07-09T01:14:06;22.10;47.70
51029;DHT22;37054;52.054;8.600;2023-07-09T01:16:34;22.10;47.80
51029;DHT22;37054;52.054;8.600;2023-07-09T01:19:02;22.10;47.90
51029;DHT22;37054;52.054;8.600;2023-07-09T01:21:29;22.00;48.30
51029;DHT22;37054;52.054;8.600;2023-07-09T01:23:54;22.00;48.30
51029;DHT22;37054;52.054;8.600;2023-07-09T01:26:21;22.00;48.60
51029;DHT22;37054;52.054;8.600;2023-07-09T01:28:50;22.00;48.70
51029;DHT22;37054;52.054;8.600;2023-07-09T01:31:16;22.00;48.80
51029;DHT22;37054;52.054;8.600;2023-07-09T01:33:42;21.90;48.90
51029;DHT22;37054;52.054;8.600;2023-07-09T01:36:10;21.90;49.00
51029;DHT22;37054;52.054;8.600;2023-07-09T01:38:39;21.80;49.00
51029;DHT22;37054;52.054;8.600;2023-07-09T01:41:04;21.80;49.20
51029;DHT22;37054;52.054;8.600;2023-07-09T01:43:30;21.80;49.20
51029;DHT22;37054;52.054;8.600;2023-07-09T01:45:56;21.70;49.60
51029;DHT22;37054;52.054;8.600;2023-07-09T01:48:23;21.70;50.20
51029;DHT22;37054;52.054;8.600;2023-07-09T01:50:49;21.70;50.10
51029;DHT22;37054;52.054;8.600;2023-07-09T01:53:15;21.60;50.00
51029;DHT22;37054;52.054;8.600;2023-07-09T01:55:42;21.60;50.10
51029;DHT22;37054;52.054;8.600;2023-07-09T01:58:07;21.60;50.20
51029;DHT22;37054;52.054;8.600;2023-07-09T02:00:33;21.50;50.30
51029;DHT22;37054;52.054;8.600;2023-07-09T02:03:00;21.50;50.60
51029;DHT22;37054;52.054;8.600;2023-07-09T02:05:28;21.40;51.50
51029;DHT22;37054;52.054;8.600;2023-07-09T02:07:54;21.40;51.10
51029;DHT22;37054;52.054;8.600;2023-07-09T02:10:20;21.40;51.10
51029;DHT22;37054;52.054;8.600;2023-07-09T02:12:45;21.30;51.10
51029;DHT22;37054;52.054;8.600;2023-07-09T02:15:11;21.30;51.30
51029;DHT22;37054;52.054;8.600;2023-07-09T02:17:37;21.30;51.30
51029;DHT22;37054;52.054;8.600;2023-07-09T02:20:02;21.30;51.40
51029;DHT22;37054;52.054;8.600;2023-07-09T02:22:30;21.30;51.40
51029;DHT22;37054;52.054;8.600;2023-07-09T02:24:56;21.30;51.30
51029;DHT22;37054;52.054;8.600;2023-07-09T02:27:21;21.30;51.30
51029;DHT22;37054;52.054;8.600;2023-07-09T02:29:47;21.30;51.70
51029;DHT22;37054;52.054;8.600;2023-07-09T02:32:19;21.30;51.60
51029;DHT22;37054;52.054;8.600;2023-07-09T02:34:45;21.30;51.70
51029;DHT22;37054;52.054;8.600;2023-07-09T02:37:14;21.20;51.60
51029;DHT22;37054;52.054;8.600;2023-07-09T02:39:40;21.20;51.60
51029;DHT22;37054;52.054;8.600;2023-07-09T02:42:07;21.20;51.60
51029;DHT22;37054;52.054;8.600;2023-07-09T02:44:33;21.20;51.60
51029;DHT22;37054;52.054;8.600;2023-07-09T02:46:59;21.20;51.50
51029;DHT22;37054;52.054;8.600;2023-07-09T02:49:24;21.10;51.50
51029;DHT22;37054;52.054;8.600;2023-07-09T02:51:49;21.10;51.60
51029;DHT22;37054;52.054;8.600;2023-07-09T02:54:15;21.10;51.60
51029;DHT22;37054;52.054;8.600;2023-07-09T02:56:40;21.10;51.70
51029;DHT22;37054;52.054;8.600;2023-07-09T02:59:06;21.00;51.80
51029;DHT22;37054;52.054;8.600;2023-07-09T03:01:31;21.00;51.80
51029;DHT22;37054;52.054;8.600;2023-07-09T03:03:59;21.00;51.80
51029;DHT22;37054;52.054;8.600;2023-07-09T03:06:27;21.00;52.00
51029;DHT22;37054;52.054;8.600;2023-07-09T03:08:52;21.00;52.20
51029;DHT22;37054;52.054;8.600;2023-07-09T03:11:18;20.90;52.30
51029;DHT22;37054;52.054;8.600;2023-07-09T03:13:44;20.90;52.20
51029;DHT22;37054;52.054;8.600;2023-07-09T03:16:10;20.90;52.10
51029;DHT22;37054;52.054;8.600;2023-07-09T03:18:36;20.90;52.10
51029;DHT22;37054;52.054;8.600;2023-07-09T03:21:01;20.90;54.00
51029;DHT22;37054;52.054;8.600;2023-07-09T03:23:26;20.90;54.10
51029;DHT22;37054;52.054;8.600;2023-07-09T03:25:52;21.00;53.60
51029;DHT22;37054;52.054;8.600;2023-07-09T03:28:17;21.00;53.90
51029;DHT22;37054;52.054;8.600;2023-07-09T03:30:44;21.00;53.90
51029;DHT22;37054;52.054;8.600;2023-07-09T03:33:09;21.00;53.60
51029;DHT22;37054;52.054;8.600;2023-07-09T03:35:35;21.00;54.20
51029;DHT22;37054;52.054;8.600;2023-07-09T03:38:01;21.10;54.50
51029;DHT22;37054;52.054;8.600;2023-07-09T03:40:27;21.10;54.40
51029;DHT22;37054;52.054;8.600;2023-07-09T03:42:52;21.20;54.80
51029;DHT22;37054;52.054;8.600;2023-07-09T03:45:18;21.30;54.80
51029;DHT22;37054;52.054;8.600;2023-07-09T03:47:43;21.50;54.90
51029;DHT22;37054;52.054;8.600;2023-07-09T03:50:09;21.60;54.70
51029;DHT22;37054;52.054;8.600;2023-07-09T03:52:34;21.80;54.50
51029;DHT22;37054;52.054;8.600;2023-07-09T03:55:00;22.00;54.70
51029;DHT22;37054;52.054;8.600;2023-07-09T03:57:26;22.20;54.70
51029;DHT22;37054;52.054;8.600;2023-07-09T03:59:52;22.40;54.60
51029;DHT22;37054;52.054;8.600;2023-07-09T04:02:17;22.60;54.40
51029;DHT22;37054;52.054;8.600;2023-07-09T04:04:43;22.80;54.30
51029;DHT22;37054;52.054;8.600;2023-07-09T04:07:08;23.00;54.10
51029;DHT22;37054;52.054;8.600;2023-07-09T04:09:34;23.30;53.90
51029;DHT22;37054;52.054;8.600;2023-07-09T04:11:59;23.50;53.70
51029;DHT22;37054;52.054;8.600;2023-07-09T04:14:26;23.70;53.50
51029;DHT22;37054;52.054;8.600;2023-07-09T04:16:52;23.90;53.40
51029;DHT22;37054;52.054;8.600;2023-07-09T04:19:17;24.20;53.00
51029;DHT22;37054;52.054;8.600;2023-07-09T04:21:43;24.30;52.80
51029;DHT22;37054;52.054;8.600;2023-07-09T04:24:08;24.60;52.60
51029;DHT22;37054;52.054;8.600;2023-07-09T04:26:33;24.80;52.20
51029;DHT22;37054;52.054;8.600;2023-07-09T04:29:00;25.10;52.00
51029;DHT22;37054;52.054;8.600;2023-07-09T04:31:26;25.30;51.80
51029;DHT22;37054;52.054;8.600;2023-07-09T04:33:51;25.60;51.50
51029;DHT22;37054;52.054;8.600;2023-07-09T04:36:18;25.90;51.00
51029;DHT22;37054;52.054;8.600;2023-07-09T04:38:43;26.20;50.40
51029;DHT22;37054;52.054;8.600;2023-07-09T04:41:08;26.30;50.00
51029;DHT22;37054;52.054;8.600;2023-07-09T04:43:34;26.60;49.70
51029;DHT22;37054;52.054;8.600;2023-07-09T04:45:59;26.80;49.40
51029;DHT22;37054;52.054;8.600;2023-07-09T04:48:25;27.10;49.00
51029;DHT22;37054;52.054;8.600;2023-07-09T04:50:51;27.30;48.50
51029;DHT22;37054;52.054;8.600;2023-07-09T04:53:16;27.60;48.30
51029;DHT22;37054;52.054;8.600;2023-07-09T04:55:41;27.80;48.00
51029;DHT22;37054;52.054;8.600;2023-07-09T04:58:07;28.20;47.70
51029;DHT22;37054;52.054;8.600;2023-07-09T05:00:33;28.50;47.20
51029;DHT22;37054;52.054;8.600;2023-07-09T05:02:58;28.80;46.60
51029;DHT22;37054;52.054;8.600;2023-07-09T05:05:23;29.10;46.20
51029;DHT22;37054;52.054;8.600;2023-07-09T05:07:49;29.30;45.30
51029;DHT22;37054;52.054;8.600;2023-07-09T05:10:16;29.60;45.00
51029;DHT22;37054;52.054;8.600;2023-07-09T05:12:51;29.90;44.60
51029;DHT22;37054;52.054;8.600;2023-07-09T05:15:18;30.20;44.10
51029;DHT22;37054;52.054;8.600;2023-07-09T05:17:44;30.50;43.40
51029;DHT22;37054;52.054;8.600;2023-07-09T05:20:09;30.80;42.80
51029;DHT22;37054;52.054;8.600;2023-07-09T05:22:35;31.20;42.50
51029;DHT22;37054;52.054;8.600;2023-07-09T05:25:00;31.50;41.80
51029;DHT22;37054;52.054;8.600;2023-07-09T05:27:26;31.80;41.20
51029;DHT22;37054;52.054;8.600;2023-07-09T05:29:51;32.30;40.00
51029;DHT22;37054;52.054;8.600;2023-07-09T05:32:17;32.60;39.80
51029;DHT22;37054;52.054;8.600;2023-07-09T05:34:42;33.00;39.00
51029;DHT22;37054;52.054;8.600;2023-07-09T05:37:07;33.30;38.40
51029;DHT22;37054;52.054;8.600;2023-07-09T05:39:33;33.70;37.70
51029;DHT22;37054;52.054;8.600;2023-07-09T05:41:59;34.00;37.20
51029;DHT22;37054;52.054;8.600;2023-07-09T05:44:24;34.20;36.40
51029;DHT22;37054;52.054;8.600;2023-07-09T05:46:49;34.20;35.60
51029;DHT22;37054;52.054;8.600;2023-07-09T05:49:15;34.00;35.30
51029;DHT22;37054;52.054;8.600;2023-07-09T05:51:40;33.80;35.20
51029;DHT22;37054;52.054;8.600;2023-07-09T05:54:06;33.50;35.30
51029;DHT22;37054;52.054;8.600;2023-07-09T05:56:31;33.40;35.40
51029;DHT22;37054;52.054;8.600;2023-07-09T05:58:57;33.40;35.50
51029;DHT22;37054;52.054;8.600;2023-07-09T06:01:22;33.60;35.50
51029;DHT22;37054;52.054;8.600;2023-07-09T06:03:48;33.60;35.20
51029;DHT22;37054;52.054;8.600;2023-07-09T06:06:14;33.50;35.00
51029;DHT22;37054;52.054;8.600;2023-07-09T06:08:39;33.40;35.00
51029;DHT22;37054;52.054;8.600;2023-07-09T06:11:05;33.40;35.00
51029;DHT22;37054;52.054;8.600;2023-07-09T06:13:31;33.50;35.50
51029;DHT22;37054;52.054;8.600;2023-07-09T06:15:56;33.90;35.60
51029;DHT22;37054;52.054;8.600;2023-07-09T06:18:22;34.30;35.30
51029;DHT22;37054;52.054;8.600;2023-07-09T06:20:51;34.70;34.80
51029;DHT22;37054;52.054;8.600;2023-07-09T06:23:18;35.20;34.50
51029;DHT22;37054;52.054;8.600;2023-07-09T06:25:44;35.70;33.80
51029;DHT22;37054;52.054;8.600;2023-07-09T06:28:13;36.20;33.00
51029;DHT22;37054;52.054;8.600;2023-07-09T06:30:38;36.60;32.70
51029;DHT22;37054;52.054;8.600;2023-07-09T06:33:03;37.00;32.10
51029;DHT22;37054;52.054;8.600;2023-07-09T06:35:29;37.40;31.20
51029;DHT22;37054;52.054;8.600;2023-07-09T06:37:54;37.60;30.70
51029;DHT22;37054;52.054;8.600;2023-07-09T06:40:20;37.90;30.40
51029;DHT22;37054;52.054;8.600;2023-07-09T06:42:45;38.30;30.30
51029;DHT22;37054;52.054;8.600;2023-07-09T06:45:10;38.60;30.20
51029;DHT22;37054;52.054;8.600;2023-07-09T06:47:36;39.00;29.70
51029;DHT22;37054;52.054;8.600;2023-07-09T06:50:02;39.30;29.10
51029;DHT22;37054;52.054;8.600;2023-07-09T06:52:27;39.70;28.80
51029;DHT22;37054;52.054;8.600;2023-07-09T06:54:52;40.00;28.70
51029;DHT22;37054;52.054;8.600;2023-07-09T06:57:18;40.50;28.40
51029;DHT22;37054;52.054;8.600;2023-07-09T06:59:43;40.80;27.50
51029;DHT22;37054;52.054;8.600;2023-07-09T07:02:09;41.00;27.30
51029;DHT22;37054;52.054;8.600;2023-07-09T07:04:34;41.30;26.70
51029;DHT22;37054;52.054;8.600;2023-07-09T07:06:59;41.60;26.50
51029;DHT22;37054;52.054;8.600;2023-07-09T07:09:25;41.80;26.50
51029;DHT22;37054;52.054;8.600;2023-07-09T07:11:50;42.10;26.30
51029;DHT22;37054;52.054;8.600;2023-07-09T07:14:16;42.40;25.90
51029;DHT22;37054;52.054;8.600;2023-07-09T07:16:41;42.60;25.80
51029;DHT22;37054;52.054;8.600;2023-07-09T07:19:06;42.80;25.20
51029;DHT22;37054;52.054;8.600;2023-07-09T07:21:32;43.00;25.10
51029;DHT22;37054;52.054;8.600;2023-07-09T07:23:57;43.20;25.10
51029;DHT22;37054;52.054;8.600;2023-07-09T07:26:23;43.50;25.10
51029;DHT22;37054;52.054;8.600;2023-07-09T07:28:48;43.80;24.70
51029;DHT22;37054;52.054;8.600;2023-07-09T07:31:15;44.10;24.50
51029;DHT22;37054;52.054;8.600;2023-07-09T07:33:41;44.40;24.20
51029;DHT22;37054;52.054;8.600;2023-07-09T07:36:07;44.70;23.90
51029;DHT22;37054;52.054;8.600;2023-07-09T07:38:33;44.90;23.50
51029;DHT22;37054;52.054;8.600;2023-07-09T07:40:58;45.00;23.50
51029;DHT22;37054;52.054;8.600;2023-07-09T07:43:23;45.30;23.30
51029;DHT22;37054;52.054;8.600;2023-07-09T07:45:49;45.50;23.00
51029;DHT22;37054;52.054;8.600;2023-07-09T07:48:15;45.70;23.00
51029;DHT22;37054;52.054;8.600;2023-07-09T07:50:40;46.00;22.50
51029;DHT22;37054;52.054;8.600;2023-07-09T07:53:06;46.30;22.50
51029;DHT22;37054;52.054;8.600;2023-07-09T07:55:33;46.60;22.30
51029;DHT22;37054;52.054;8.600;2023-07-09T07:57:58;46.80;22.10
51029;DHT22;37054;52.054;8.600;2023-07-09T08:00:25;47.10;21.90
51029;DHT22;37054;52.054;8.600;2023-07-09T08:02:52;47.20;21.70
51029;DHT22;37054;52.054;8.600;2023-07-09T08:05:18;47.50;21.40
51029;DHT22;37054;52.054;8.600;2023-07-09T08:07:43;47.60;21.30
51029;DHT22;37054;52.054;8.600;2023-07-09T08:10:09;47.70;20.60
51029;DHT22;37054;52.054;8.600;2023-07-09T08:12:34;47.80;20.60
51029;DHT22;37054;52.054;8.600;2023-07-09T08:15:00;48.00;20.60
51029;DHT22;37054;52.054;8.600;2023-07-09T08:17:25;48.20;20.60
51029;DHT22;37054;52.054;8.600;2023-07-09T08:19:53;48.40;20.20
51029;DHT22;37054;52.054;8.600;2023-07-09T08:22:19;48.40;20.20
51029;DHT22;37054;52.054;8.600;2023-07-09T08:24:46;48.50;20.00
51029;DHT22;37054;52.054;8.600;2023-07-09T08:27:11;48.50;19.50
51029;DHT22;37054;52.054;8.600;2023-07-09T08:29:37;48.50;19.40
51029;DHT22;37054;52.054;8.600;2023-07-09T08:32:03;48.70;19.40
51029;DHT22;37054;52.054;8.600;2023-07-09T08:34:29;48.90;19.30
51029;DHT22;37054;52.054;8.600;2023-07-09T08:36:54;49.10;19.40
51029;DHT22;37054;52.054;8.600;2023-07-09T08:39:20;49.30;19.30
51029;DHT22;37054;52.054;8.600;2023-07-09T08:41:50;49.50;19.30
51029;DHT22;37054;52.054;8.600;2023-07-09T08:44:28;49.70;19.20
51029;DHT22;37054;52.054;8.600;2023-07-09T08:47:02;50.00;18.90
51029;DHT22;37054;52.054;8.600;2023-07-09T08:49:37;50.10;18.80
51029;DHT22;37054;52.054;8.600;2023-07-09T08:52:05;50.20;18.60
51029;DHT22;37054;52.054;8.600;2023-07-09T08:54:35;50.10;18.20
51029;DHT22;37054;52.054;8.600;2023-07-09T08:57:23;50.10;18.50
51029;DHT22;37054;52.054;8.600;2023-07-09T08:59:46;50.30;18.30
51029;DHT22;37054;52.054;8.600;2023-07-09T09:02:15;50.30;18.20
51029;DHT22;37054;52.054;8.600;2023-07-09T09:04:42;50.30;18.00
51029;DHT22;37054;52.054;8.600;2023-07-09T09:09:50;50.50;18.30
51029;DHT22;37054;52.054;8.600;2023-07-09T09:12:37;50.60;18.10
51029;DHT22;37054;52.054;8.600;2023-07-09T09:17:35;50.80;17.90
51029;DHT22;37054;52.054;8.600;2023-07-09T09:20:04;50.90;17.90
51029;DHT22;37054;52.054;8.600;2023-07-09T09:22:36;51.10;17.80
51029;DHT22;37054;52.054;8.600;2023-07-09T09:27:49;51.30;17.60
51029;DHT22;37054;52.054;8.600;2023-07-09T09:30:15;51.20;17.60
51029;DHT22;37054;52.054;8.600;2023-07-09T09:32:42;51.10;17.50
51029;DHT22;37054;52.054;8.600;2023-07-09T09:35:12;51.00;17.50
51029;DHT22;37054;52.054;8.600;2023-07-09T09:37:38;51.00;17.60
51029;DHT22;37054;52.054;8.600;2023-07-09T09:40:04;51.10;17.80
51029;DHT22;37054;52.054;8.600;2023-07-09T09:42:30;51.20;17.70
51029;DHT22;37054;52.054;8.600;2023-07-09T09:44:55;51.20;17.50
51029;DHT22;37054;52.054;8.600;2023-07-09T09:47:21;51.10;17.60
51029;DHT22;37054;52.054;8.600;2023-07-09T09:49:46;51.10;17.70
51029;DHT22;37054;52.054;8.600;2023-07-09T09:52:13;51.10;17.70
51029;DHT22;37054;52.054;8.600;2023-07-09T09:54:40;50.90;17.50
51029;DHT22;37054;52.054;8.600;2023-07-09T09:57:16;50.80;17.70
51029;DHT22;37054;52.054;8.600;2023-07-09T09:59:42;50.80;17.70
51029;DHT22;37054;52.054;8.600;2023-07-09T10:02:21;50.70;17.80
51029;DHT22;37054;52.054;8.600;2023-07-09T10:04:48;50.70;17.50
51029;DHT22;37054;52.054;8.600;2023-07-09T10:07:21;50.70;17.70
51029;DHT22;37054;52.054;8.600;2023-07-09T10:09:52;50.70;17.70
51029;DHT22;37054;52.054;8.600;2023-07-09T10:12:38;50.60;17.80
51029;DHT22;37054;52.054;8.600;2023-07-09T10:27:45;51.20;17.90
51029;DHT22;37054;52.054;8.600;2023-07-09T10:32:44;51.00;17.80
51029;DHT22;37054;52.054;8.600;2023-07-09T10:35:15;50.90;17.80
51029;DHT22;37054;52.054;8.600;2023-07-09T10:37:59;50.90;17.90
51029;DHT22;37054;52.054;8.600;2023-07-09T10:40:52;51.00;17.70
51029;DHT22;37054;52.054;8.600;2023-07-09T10:43:19;51.00;17.70
51029;DHT22;37054;52.054;8.600;2023-07-09T10:45:47;50.90;17.80
51029;DHT22;37054;52.054;8.600;2023-07-09T10:48:17;50.80;17.60
51029;DHT22;37054;52.054;8.600;2023-07-09T10:50:46;50.70;17.70
51029;DHT22;37054;52.054;8.600;2023-07-09T10:53:14;50.70;17.60
51029;DHT22;37054;52.054;8.600;2023-07-09T10:56:26;50.60;17.60
51029;DHT22;37054;52.054;8.600;2023-07-09T10:58:34;50.40;17.70
51029;DHT22;37054;52.054;8.600;2023-07-09T11:01:00;50.40;17.70
51029;DHT22;37054;52.054;8.600;2023-07-09T11:03:37;50.30;17.80
51029;DHT22;37054;52.054;8.600;2023-07-09T11:06:04;50.40;17.90
51029;DHT22;37054;52.054;8.600;2023-07-09T11:08:36;50.40;17.80
51029;DHT22;37054;52.054;8.600;2023-07-09T11:11:06;50.40;17.80
51029;DHT22;37054;52.054;8.600;2023-07-09T11:13:37;50.40;17.90
51029;DHT22;37054;52.054;8.600;2023-07-09T11:16:04;50.50;17.60
51029;DHT22;37054;52.054;8.600;2023-07-09T11:18:31;50.30;17.50
51029;DHT22;37054;52.054;8.600;2023-07-09T11:21:06;50.20;17.80
51029;DHT22;37054;52.054;8.600;2023-07-09T11:23:46;50.30;17.80
51029;DHT22;37054;52.054;8.600;2023-07-09T11:26:13;50.10;17.60
51029;DHT22;37054;52.054;8.600;2023-07-09T11:28:39;49.90;17.70
51029;DHT22;37054;52.054;8.600;2023-07-09T11:31:06;50.00;17.70
51029;DHT22;37054;52.054;8.600;2023-07-09T11:33:33;49.80;17.80
51029;DHT22;37054;52.054;8.600;2023-07-09T11:36:12;49.80;17.80
51029;DHT22;37054;52.054;8.600;2023-07-09T11:38:42;50.00;17.90
51029;DHT22;37054;52.054;8.600;2023-07-09T11:43:52;49.90;17.80
51029;DHT22;37054;52.054;8.600;2023-07-09T11:46:18;49.80;17.70
51029;DHT22;37054;52.054;8.600;2023-07-09T11:48:45;49.60;18.00
51029;DHT22;37054;52.054;8.600;2023-07-09T11:51:15;49.40;18.30
51029;DHT22;37054;52.054;8.600;2023-07-09T11:53:43;49.40;18.30
51029;DHT22;37054;52.054;8.600;2023-07-09T11:56:09;49.10;18.10
51029;DHT22;37054;52.054;8.600;2023-07-09T11:58:35;48.90;18.30
51029;DHT22;37054;52.054;8.600;2023-07-09T12:01:01;49.00;18.10
51029;DHT22;37054;52.054;8.600;2023-07-09T12:03:31;48.90;18.20
51029;DHT22;37054;52.054;8.600;2023-07-09T12:06:14;48.80;18.20
51029;DHT22;37054;52.054;8.600;2023-07-09T12:08:41;48.70;18.30
51029;DHT22;37054;52.054;8.600;2023-07-09T12:11:21;48.70;18.10
51029;DHT22;37054;52.054;8.600;2023-07-09T12:13:47;48.70;17.80
51029;DHT22;37054;52.054;8.600;2023-07-09T12:16:23;48.60;18.00
51029;DHT22;37054;52.054;8.600;2023-07-09T12:18:49;48.70;18.10
51029;DHT22;37054;52.054;8.600;2023-07-09T12:21:14;48.90;18.30
51029;DHT22;37054;52.054;8.600;2023-07-09T12:23:40;49.10;18.30
51029;DHT22;37054;52.054;8.600;2023-07-09T12:26:06;49.30;18.30
51029;DHT22;37054;52.054;8.600;2023-07-09T12:28:32;49.50;18.00
51029;DHT22;37054;52.054;8.600;2023-07-09T12:30:57;49.60;17.70
51029;DHT22;37054;52.054;8.600;2023-07-09T12:33:24;49.60;17.40
51029;DHT22;37054;52.054;8.600;2023-07-09T12:35:56;49.60;16.90
51029;DHT22;37054;52.054;8.600;2023-07-09T12:38:23;49.70;17.10
51029;DHT22;37054;52.054;8.600;2023-07-09T12:40:49;49.70;16.80
51029;DHT22;37054;52.054;8.600;2023-07-09T12:43:17;49.70;16.80
51029;DHT22;37054;52.054;8.600;2023-07-09T12:45:43;49.60;16.60
51029;DHT22;37054;52.054;8.600;2023-07-09T12:48:10;49.50;16.50
51029;DHT22;37054;52.054;8.600;2023-07-09T12:50:36;49.40;16.70
51029;DHT22;37054;52.054;8.600;2023-07-09T12:53:13;49.50;16.80
51029;DHT22;37054;52.054;8.600;2023-07-09T12:55:40;49.70;16.90
51029;DHT22;37054;52.054;8.600;2023-07-09T12:58:07;49.80;16.50
51029;DHT22;37054;52.054;8.600;2023-07-09T13:00:34;49.80;16.70
51029;DHT22;37054;52.054;8.600;2023-07-09T13:03:00;49.80;16.40
51029;DHT22;37054;52.054;8.600;2023-07-09T13:05:25;49.80;16.20
51029;DHT22;37054;52.054;8.600;2023-07-09T13:07:53;49.70;15.90
51029;DHT22;37054;52.054;8.600;2023-07-09T13:12:48;49.40;16.10
51029;DHT22;37054;52.054;8.600;2023-07-09T13:15:30;49.00;16.60
51029;DHT22;37054;52.054;8.600;2023-07-09T13:17:56;48.80;16.40
51029;DHT22;37054;52.054;8.600;2023-07-09T13:20:22;48.60;16.40
51029;DHT22;37054;52.054;8.600;2023-07-09T13:22:47;48.50;16.20
51029;DHT22;37054;52.054;8.600;2023-07-09T13:25:13;48.30;16.30
51029;DHT22;37054;52.054;8.600;2023-07-09T13:27:38;48.10;16.30
51029;DHT22;37054;52.054;8.600;2023-07-09T13:30:04;48.00;16.50
51029;DHT22;37054;52.054;8.600;2023-07-09T13:32:29;48.10;16.80
51029;DHT22;37054;52.054;8.600;2023-07-09T13:34:55;48.20;16.90
51029;DHT22;37054;52.054;8.600;2023-07-09T13:37:20;48.30;16.70
51029;DHT22;37054;52.054;8.600;2023-07-09T13:39:46;48.10;16.50
51029;DHT22;37054;52.054;8.600;2023-07-09T13:42:13;47.80;16.40
51029;DHT22;37054;52.054;8.600;2023-07-09T13:44:39;47.40;17.00
51029;DHT22;37054;52.054;8.600;2023-07-09T13:47:07;47.20;17.30
51029;DHT22;37054;52.054;8.600;2023-07-09T13:49:33;47.10;17.40
51029;DHT22;37054;52.054;8.600;2023-07-09T13:52:00;47.10;17.40
51029;DHT22;37054;52.054;8.600;2023-07-09T13:54:27;47.00;17.30
51029;DHT22;37054;52.054;8.600;2023-07-09T13:56:56;46.90;17.40
51029;DHT22;37054;52.054;8.600;2023-07-09T13:59:23;46.70;17.40
51029;DHT22;37054;52.054;8.600;2023-07-09T14:01:50;46.60;17.40
51029;DHT22;37054;52.054;8.600;2023-07-09T14:04:16;46.60;17.60
51029;DHT22;37054;52.054;8.600;2023-07-09T14:06:42;46.60;17.50
51029;DHT22;37054;52.054;8.600;2023-07-09T14:09:08;46.60;17.60
51029;DHT22;37054;52.054;8.600;2023-07-09T14:11:34;46.80;17.60
51029;DHT22;37054;52.054;8.600;2023-07-09T14:14:01;46.90;17.60
51029;DHT22;37054;52.054;8.600;2023-07-09T14:16:26;47.00;17.40
51029;DHT22;37054;52.054;8.600;2023-07-09T14:18:52;47.10;17.20
51029;DHT22;37054;52.054;8.600;2023-07-09T14:21:18;46.90;16.90
51029;DHT22;37054;52.054;8.600;2023-07-09T14:23:46;46.90;16.70
51029;DHT22;37054;52.054;8.600;2023-07-09T14:26:11;46.70;16.10
51029;DHT22;37054;52.054;8.600;2023-07-09T14:28:37;46.50;16.20
51029;DHT22;37054;52.054;8.600;2023-07-09T14:31:04;46.40;16.40
51029;DHT22;37054;52.054;8.600;2023-07-09T14:33:33;46.30;16.30
51029;DHT22;37054;52.054;8.600;2023-07-09T14:36:00;45.90;16.50
51029;DHT22;37054;52.054;8.600;2023-07-09T14:38:25;46.00;16.90
51029;DHT22;37054;52.054;8.600;2023-07-09T14:40:55;46.00;17.00
51029;DHT22;37054;52.054;8.600;2023-07-09T14:43:21;46.20;17.10
51029;DHT22;37054;52.054;8.600;2023-07-09T14:45:47;46.10;17.00
51029;DHT22;37054;52.054;8.600;2023-07-09T14:48:13;46.00;17.00
51029;DHT22;37054;52.054;8.600;2023-07-09T14:50:39;45.80;17.10
51029;DHT22;37054;52.054;8.600;2023-07-09T14:53:15;45.50;17.30
51029;DHT22;37054;52.054;8.600;2023-07-09T14:55:41;45.30;17.50
51029;DHT22;37054;52.054;8.600;2023-07-09T14:58:14;45.00;17.70
51029;DHT22;37054;52.054;8.600;2023-07-09T15:00:40;44.80;17.80
51029;DHT22;37054;52.054;8.600;2023-07-09T15:03:08;44.50;18.00
51029;DHT22;37054;52.054;8.600;2023-07-09T15:05:34;44.40;18.10
51029;DHT22;37054;52.054;8.600;2023-07-09T15:07:59;44.20;18.20
51029;DHT22;37054;52.054;8.600;2023-07-09T15:10:26;44.00;18.50
51029;DHT22;37054;52.054;8.600;2023-07-09T15:12:52;44.00;18.60
51029;DHT22;37054;52.054;8.600;2023-07-09T15:15:28;43.90;18.70
51029;DHT22;37054;52.054;8.600;2023-07-09T15:17:54;43.70;18.80
51029;DHT22;37054;52.054;8.600;2023-07-09T15:20:21;43.40;18.90
51029;DHT22;37054;52.054;8.600;2023-07-09T15:22:48;43.20;19.30
51029;DHT22;37054;52.054;8.600;2023-07-09T15:25:15;43.10;19.40
51029;DHT22;37054;52.054;8.600;2023-07-09T15:27:41;43.00;19.40
51029;DHT22;37054;52.054;8.600;2023-07-09T15:30:19;42.80;19.50
51029;DHT22;37054;52.054;8.600;2023-07-09T15:32:45;42.80;19.50
51029;DHT22;37054;52.054;8.600;2023-07-09T15:35:14;42.70;19.70
51029;DHT22;37054;52.054;8.600;2023-07-09T15:37:40;42.70;20.00
51029;DHT22;37054;52.054;8.600;2023-07-09T15:40:19;42.50;20.30
51029;DHT22;37054;52.054;8.600;2023-07-09T15:42:45;42.40;20.70
51029;DHT22;37054;52.054;8.600;2023-07-09T15:45:13;42.20;21.10
51029;DHT22;37054;52.054;8.600;2023-07-09T15:47:39;42.10;21.40
51029;DHT22;37054;52.054;8.600;2023-07-09T15:50:12;42.00;21.60
51029;DHT22;37054;52.054;8.600;2023-07-09T15:52:37;41.80;21.90
51029;DHT22;37054;52.054;8.600;2023-07-09T15:55:03;41.70;22.20
51029;DHT22;37054;52.054;8.600;2023-07-09T15:57:28;41.60;22.50
51029;DHT22;37054;52.054;8.600;2023-07-09T15:59:54;41.40;22.90